createdAt,value
2022-12-03T00:01:13.906Z,96930.28
2022-12-03T00:03:40.418Z,96932.13
2022-12-03T00:06:07.117Z,96933.94
2022-12-03T00:08:33.485Z,96935.72
2022-12-03T00:10:59.831Z,96928.34
2022-12-03T00:13:26.276Z,96934.19
2022-12-03T00:15:52.661Z,96937.91
2022-12-03T00:18:19.074Z,96929.91
2022-12-03T00:20:45.414Z,96933.53
2022-12-03T00:23:11.754Z,96928.44
2022-12-03T00:25:38.090Z,96935.41
2022-12-03T00:28:04.632Z,96925.44
2022-12-03T00:30:30.967Z,96921.19
2022-12-03T00:32:57.763Z,96929.75
2022-12-03T00:35:24.122Z,96931.50
2022-12-03T00:37:50.588Z,96919.78
2022-12-03T00:40:17.001Z,96917.19
2022-12-03T00:42:43.347Z,96919.00
2022-12-03T00:45:10.074Z,96922.38
2022-12-03T00:47:36.479Z,96916.56
2022-12-03T00:50:02.821Z,96910.56
2022-12-03T00:52:29.197Z,96926.97
2022-12-03T00:54:55.789Z,96923.44
2022-12-03T00:57:22.448Z,96926.28
2022-12-03T00:59:48.792Z,96922.91
2022-12-03T01:02:15.182Z,96921.56
2022-12-03T01:04:41.748Z,96923.22
2022-12-03T01:07:08.181Z,96925.41
2022-12-03T01:09:34.646Z,96926.09
2022-12-03T01:12:01.007Z,96927.34
2022-12-03T01:14:27.503Z,96921.63
2022-12-03T01:16:53.903Z,96917.44
2022-12-03T01:19:20.570Z,96920.84
2022-12-03T01:21:49.125Z,96923.44
2022-12-03T01:24:16.221Z,96916.19
2022-12-03T01:26:42.587Z,96921.47
2022-12-03T01:29:08.999Z,96922.84
2022-12-03T01:31:54.025Z,96927.38
2022-12-03T01:34:20.829Z,96926.34
2022-12-03T01:36:47.254Z,96927.09
2022-12-03T01:39:13.683Z,96926.50
2022-12-03T01:41:40.770Z,96923.25
2022-12-03T01:44:16.755Z,96924.84
2022-12-03T01:46:43.527Z,96922.31
2022-12-03T01:49:40.966Z,96926.69
2022-12-03T01:52:12.273Z,96923.50
2022-12-03T01:54:40.656Z,96920.13
2022-12-03T01:57:18.171Z,96912.56
2022-12-03T01:59:44.894Z,96919.81
2022-12-03T02:02:13.854Z,96918.50
2022-12-03T02:04:40.654Z,96913.66
2022-12-03T02:07:21.326Z,96919.72
2022-12-03T02:09:47.677Z,96914.00
2022-12-03T02:12:16.944Z,96912.44
2022-12-03T02:14:44.040Z,96918.28
2022-12-03T02:17:11.410Z,96915.06
2022-12-03T02:19:37.943Z,96914.28
2022-12-03T02:22:32.826Z,96914.88
2022-12-03T02:24:59.298Z,96911.91
2022-12-03T02:27:28.075Z,96907.69
2022-12-03T02:29:54.613Z,96908.56
2022-12-03T02:32:23.334Z,96911.09
2022-12-03T02:34:50.310Z,96914.09
2022-12-03T02:37:26.885Z,96919.34
2022-12-03T02:40:01.624Z,96918.63
2022-12-03T02:42:35.278Z,96918.63
2022-12-03T02:45:10.457Z,96911.75
2022-12-03T02:47:43.146Z,96912.50
2022-12-03T02:50:12.256Z,96910.69
2022-12-03T02:52:39.605Z,96908.44
2022-12-03T02:55:07.238Z,96921.03
2022-12-03T02:57:35.934Z,96918.38
2022-12-03T03:00:02.410Z,96923.34
2022-12-03T03:02:28.947Z,96927.03
2022-12-03T03:04:56.850Z,96916.84
2022-12-03T03:07:23.325Z,96926.44
2022-12-03T03:09:49.869Z,96930.88
2022-12-03T03:12:16.551Z,96921.00
2022-12-03T03:14:42.992Z,96915.56
2022-12-03T03:17:09.437Z,96924.63
2022-12-03T03:19:35.957Z,96922.84
2022-12-03T03:22:02.346Z,96924.09
2022-12-03T03:24:28.706Z,96920.38
2022-12-03T03:26:55.249Z,96931.41
2022-12-03T03:29:21.932Z,96937.81
2022-12-03T03:31:48.829Z,96932.78
2022-12-03T03:34:16.337Z,96929.06
2022-12-03T03:36:43.495Z,96930.88
2022-12-03T03:39:09.947Z,96925.16
2022-12-03T03:41:36.879Z,96924.44
2022-12-03T03:44:06.087Z,96926.38
2022-12-03T03:46:33.573Z,96922.25
2022-12-03T03:49:00.487Z,96915.88
2022-12-03T03:51:27.125Z,96920.19
2022-12-03T03:53:54.066Z,96924.09
2022-12-03T03:56:21.465Z,96922.16
2022-12-03T03:58:47.845Z,96924.78
2022-12-03T04:01:15.377Z,96919.13
2022-12-03T04:03:41.910Z,96914.34
2022-12-03T04:06:08.764Z,96921.94
2022-12-03T04:08:35.271Z,96919.06
2022-12-03T04:11:20.253Z,96920.13
2022-12-03T04:13:46.758Z,96911.31
2022-12-03T04:16:13.146Z,96913.75
2022-12-03T04:18:42.729Z,96909.63
2022-12-03T04:21:36.502Z,96913.97
2022-12-03T04:24:04.119Z,96911.44
2022-12-03T04:26:49.763Z,96911.97
2022-12-03T04:29:16.234Z,96903.59
2022-12-03T04:32:01.152Z,96915.50
2022-12-03T04:34:46.015Z,96909.84
2022-12-03T04:37:12.392Z,96911.78
2022-12-03T04:39:38.758Z,96909.25
2022-12-03T04:42:06.167Z,96906.66
2022-12-03T04:44:33.320Z,96903.16
2022-12-03T04:47:11.791Z,96898.75
2022-12-03T04:49:41.347Z,96901.34
2022-12-03T04:52:08.146Z,96902.22
2022-12-03T04:54:35.155Z,96906.38
2022-12-03T04:57:01.685Z,96908.84
2022-12-03T04:59:28.641Z,96900.47
2022-12-03T05:01:55.096Z,96895.50
2022-12-03T05:04:21.561Z,96883.59
2022-12-03T05:06:47.992Z,96890.31
2022-12-03T05:09:14.460Z,96887.66
2022-12-03T05:11:41.458Z,96880.81
2022-12-03T05:14:08.251Z,96879.03
2022-12-03T05:16:34.870Z,96882.56
2022-12-03T05:19:01.981Z,96892.13
2022-12-03T05:21:28.369Z,96887.16
2022-12-03T05:23:54.758Z,96897.25
2022-12-03T05:26:21.404Z,96900.34
2022-12-03T05:28:47.738Z,96899.69
2022-12-03T05:31:14.211Z,96903.59
2022-12-03T05:33:44.143Z,96910.50
2022-12-03T05:36:11.223Z,96912.44
2022-12-03T05:38:37.628Z,96905.06
2022-12-03T05:41:24.284Z,96908.28
2022-12-03T05:43:50.775Z,96914.88
2022-12-03T05:46:17.409Z,96918.47
2022-12-03T05:48:44.141Z,96900.88
2022-12-03T05:51:10.460Z,96909.72
2022-12-03T05:53:36.815Z,96921.38
2022-12-03T05:56:03.216Z,96925.03
2022-12-03T05:58:29.623Z,96922.31
2022-12-03T06:00:56.007Z,96923.31
2022-12-03T06:03:22.427Z,96923.97
2022-12-03T06:05:48.842Z,96918.19
2022-12-03T06:08:15.263Z,96916.88
2022-12-03T06:10:41.619Z,96915.03
2022-12-03T06:13:07.981Z,96914.88
2022-12-03T06:15:38.771Z,96915.88
2022-12-03T06:18:08.478Z,96919.13
2022-12-03T06:20:34.841Z,96911.38
2022-12-03T06:23:01.154Z,96923.03
2022-12-03T06:25:27.500Z,96926.44
2022-12-03T06:27:53.858Z,96927.09
2022-12-03T06:30:20.200Z,96929.66
2022-12-03T06:32:46.559Z,96926.94
2022-12-03T06:35:13.020Z,96934.13
2022-12-03T06:37:39.356Z,96934.06
2022-12-03T06:40:06.634Z,96932.47
2022-12-03T06:42:33.008Z,96922.97
2022-12-03T06:44:59.390Z,96923.03
2022-12-03T06:47:25.705Z,96924.78
2022-12-03T06:49:52.065Z,96932.47
2022-12-03T06:52:18.423Z,96924.97
2022-12-03T06:54:44.754Z,96921.84
2022-12-03T06:57:11.295Z,96921.84
2022-12-03T06:59:37.930Z,96926.91
2022-12-03T07:02:04.888Z,96924.19
2022-12-03T07:04:31.357Z,96925.03
2022-12-03T07:06:57.818Z,96919.47
2022-12-03T07:09:24.271Z,96911.38
2022-12-03T07:11:50.613Z,96918.19
2022-12-03T07:14:16.997Z,96915.59
2022-12-03T07:16:43.977Z,96917.00
2022-12-03T07:19:10.836Z,96912.34
2022-12-03T07:21:37.420Z,96913.31
2022-12-03T07:24:04.000Z,96915.03
2022-12-03T07:26:30.330Z,96907.31
2022-12-03T07:28:57.099Z,96903.81
2022-12-03T07:31:23.599Z,96899.56
2022-12-03T07:33:50.216Z,96892.97
2022-12-03T07:36:16.674Z,96896.09
2022-12-03T07:38:43.066Z,96905.47
2022-12-03T07:41:09.475Z,96898.69
2022-12-03T07:43:35.817Z,96905.97
2022-12-03T07:46:02.149Z,96894.63
2022-12-03T07:48:28.538Z,96907.47
2022-12-03T07:50:54.979Z,96894.63
2022-12-03T07:53:21.652Z,96901.31
2022-12-03T07:55:47.998Z,96894.84
2022-12-03T07:58:14.441Z,96893.91
2022-12-03T08:00:40.859Z,96897.69
2022-12-03T08:03:07.235Z,96903.81
2022-12-03T08:05:33.673Z,96909.13
2022-12-03T08:08:01.074Z,96908.19
2022-12-03T08:10:27.618Z,96902.88
2022-12-03T08:12:56.204Z,96899.47
2022-12-03T08:15:24.228Z,96898.69
2022-12-03T08:17:56.298Z,96892.91
2022-12-03T08:20:26.269Z,96903.94
2022-12-03T08:22:54.583Z,96885.69
2022-12-03T08:25:26.774Z,96882.47
2022-12-03T08:28:07.692Z,96875.50
2022-12-03T08:30:34.122Z,96891.06
2022-12-03T08:33:00.582Z,96895.50
2022-12-03T08:35:30.490Z,96881.66
2022-12-03T08:38:09.321Z,96883.31
2022-12-03T08:40:39.489Z,96888.28
2022-12-03T08:43:20.942Z,96887.75
2022-12-03T08:45:49.699Z,96886.81
2022-12-03T08:48:19.126Z,96885.94
2022-12-03T08:50:45.994Z,96886.63
2022-12-03T08:53:21.378Z,96885.00
2022-12-03T08:55:52.814Z,96893.84
2022-12-03T08:58:23.402Z,96894.69
2022-12-03T09:00:58.024Z,96892.38
2022-12-03T09:03:24.688Z,96893.31
2022-12-03T09:05:51.073Z,96885.47
2022-12-03T09:08:17.471Z,96885.00
2022-12-03T09:10:43.989Z,96889.44
2022-12-03T09:13:10.327Z,96892.78
2022-12-03T09:15:36.689Z,96890.97
2022-12-03T09:18:03.073Z,96893.59
2022-12-03T09:20:29.439Z,96899.69
2022-12-03T09:22:55.879Z,96898.03
2022-12-03T09:25:22.252Z,96900.81
2022-12-03T09:27:48.862Z,96895.03
2022-12-03T09:30:15.642Z,96896.97
2022-12-03T09:32:42.043Z,96892.34
2022-12-03T09:35:08.555Z,96905.31
2022-12-03T09:37:34.897Z,96898.47
2022-12-03T09:40:01.387Z,96889.13
2022-12-03T09:42:28.059Z,96886.00
2022-12-03T09:44:54.822Z,96883.50
2022-12-03T09:47:21.506Z,96887.53
2022-12-03T09:49:48.008Z,96899.31
2022-12-03T09:52:23.662Z,96891.66
2022-12-03T09:54:51.354Z,96884.47
2022-12-03T09:57:18.530Z,96896.81
2022-12-03T09:59:45.375Z,96900.34
2022-12-03T10:02:29.946Z,96884.81
2022-12-03T10:04:58.176Z,96893.78
2022-12-03T10:07:25.427Z,96896.63
2022-12-03T10:09:52.148Z,96882.91
2022-12-03T10:12:23.493Z,96887.25
2022-12-03T10:14:50.027Z,96890.72
2022-12-03T10:17:16.922Z,96875.78
2022-12-03T10:19:44.578Z,96882.28
2022-12-03T10:22:10.906Z,96878.38
2022-12-03T10:24:37.925Z,96880.75
2022-12-03T10:27:21.265Z,96877.81
2022-12-03T10:30:01.301Z,96871.00
2022-12-03T10:32:41.151Z,96873.09
2022-12-03T10:35:26.114Z,96872.84
2022-12-03T10:38:04.339Z,96864.78
2022-12-03T10:40:35.249Z,96858.31
2022-12-03T10:43:14.914Z,96860.00
2022-12-03T10:45:42.657Z,96853.47
2022-12-03T10:48:27.343Z,96849.28
2022-12-03T10:51:03.235Z,96857.34
2022-12-03T10:53:35.668Z,96853.22
2022-12-03T10:56:05.642Z,96851.84
2022-12-03T10:58:35.955Z,96852.44
2022-12-03T11:01:06.683Z,96849.22
2022-12-03T11:03:36.737Z,96846.09
2022-12-03T11:06:03.702Z,96847.41
2022-12-03T11:08:37.218Z,96842.72
2022-12-03T11:11:06.778Z,96838.19
2022-12-03T11:13:33.075Z,96841.66
2022-12-03T11:16:05.457Z,96836.72
2022-12-03T11:18:37.902Z,96835.66
2022-12-03T11:21:13.369Z,96824.16
2022-12-03T11:24:00.297Z,96824.22
2022-12-03T11:26:26.587Z,96829.03
2022-12-03T11:28:54.788Z,96826.44
2022-12-03T11:31:39.818Z,96822.06
2022-12-03T11:34:18.217Z,96818.50
2022-12-03T11:37:09.342Z,96827.19
2022-12-03T11:39:45.095Z,96819.84
2022-12-03T11:42:38.977Z,96813.13
2022-12-03T11:45:05.422Z,96806.22
2022-12-03T11:47:41.841Z,96813.00
2022-12-03T11:50:39.586Z,96807.78
2022-12-03T11:53:22.247Z,96808.75
2022-12-03T11:56:06.199Z,96803.78
2022-12-03T11:58:34.185Z,96799.59
2022-12-03T12:01:02.813Z,96796.75
2022-12-03T12:03:33.476Z,96781.38
2022-12-03T12:06:03.393Z,96784.88
2022-12-03T12:08:30.522Z,96781.44
2022-12-03T12:10:57.530Z,96789.78
2022-12-03T12:13:33.831Z,96784.69
2022-12-03T12:16:05.866Z,96777.91
2022-12-03T12:18:39.867Z,96786.41
2022-12-03T12:21:47.489Z,96775.28
2022-12-03T12:24:33.316Z,96780.38
2022-12-03T12:27:03.137Z,96772.75
2022-12-03T12:29:29.663Z,96771.16
2022-12-03T12:32:09.239Z,96770.41
2022-12-03T12:34:40.569Z,96771.41
2022-12-03T12:37:11.819Z,96767.88
2022-12-03T12:39:38.872Z,96768.88
2022-12-03T12:42:35.614Z,96763.69
2022-12-03T12:45:07.826Z,96758.66
2022-12-03T12:47:35.501Z,96761.09
2022-12-03T12:50:08.376Z,96763.84
2022-12-03T12:52:34.727Z,96759.69
2022-12-03T12:55:04.922Z,96771.19
2022-12-03T12:57:33.785Z,96764.81
2022-12-03T13:00:00.226Z,96760.25
2022-12-03T13:02:26.583Z,96752.81
2022-12-03T13:04:53.003Z,96759.03
2022-12-03T13:07:19.358Z,96752.81
2022-12-03T13:09:45.757Z,96759.50
2022-12-03T13:12:21.451Z,96756.91
2022-12-03T13:14:48.127Z,96760.44
2022-12-03T13:17:19.005Z,96760.63
2022-12-03T13:20:00.537Z,96747.69
2022-12-03T13:22:31.783Z,96745.16
2022-12-03T13:25:03.356Z,96744.31
2022-12-03T13:27:30.257Z,96749.31
2022-12-03T13:30:00.713Z,96745.16
2022-12-03T13:32:31.247Z,96737.72
2022-12-03T13:35:13.718Z,96737.75
2022-12-03T13:37:40.160Z,96730.03
2022-12-03T13:40:18.222Z,96733.41
2022-12-03T13:42:46.452Z,96727.44
2022-12-03T13:45:19.012Z,96726.38
2022-12-03T13:47:48.736Z,96722.03
2022-12-03T13:50:36.467Z,96726.97
2022-12-03T13:53:40.039Z,96733.53
2022-12-03T13:56:29.107Z,96735.09
2022-12-03T13:58:57.376Z,96725.94
2022-12-03T14:01:24.020Z,96727.44
2022-12-03T14:03:50.637Z,96731.44
2022-12-03T14:06:17.341Z,96727.34
2022-12-03T14:08:43.823Z,96723.03
2022-12-03T14:11:30.242Z,96729.91
2022-12-03T14:13:56.730Z,96722.41
2022-12-03T14:16:23.212Z,96725.72
2022-12-03T14:18:49.662Z,96732.31
2022-12-03T14:21:16.082Z,96730.50
2022-12-03T14:23:42.475Z,96730.47
2022-12-03T14:26:08.898Z,96728.00
2022-12-03T14:28:35.345Z,96722.94
2022-12-03T14:31:01.798Z,96721.28
2022-12-03T14:33:28.213Z,96716.84
2022-12-03T14:35:55.980Z,96721.28
2022-12-03T14:38:22.489Z,96723.56
2022-12-03T14:40:48.867Z,96728.84
2022-12-03T14:43:15.311Z,96718.84
2022-12-03T14:45:41.884Z,96715.78
2022-12-03T14:48:08.388Z,96713.00
2022-12-03T14:50:34.849Z,96715.44
2022-12-03T14:53:01.249Z,96713.97
2022-12-03T14:55:27.769Z,96714.91
2022-12-03T14:57:54.107Z,96723.34
2022-12-03T15:00:21.002Z,96720.00
2022-12-03T15:02:47.490Z,96722.41
2022-12-03T15:05:14.048Z,96722.44
2022-12-03T15:07:40.439Z,96722.88
2022-12-03T15:10:07.840Z,96714.44
2022-12-03T15:12:34.317Z,96716.06
2022-12-03T15:15:00.722Z,96711.94
2022-12-03T15:17:31.723Z,96722.63
2022-12-03T15:19:58.464Z,96724.34
2022-12-03T15:22:24.911Z,96727.81
2022-12-03T15:24:51.324Z,96723.69
2022-12-03T15:27:20.659Z,96726.16
2022-12-03T15:29:47.051Z,96728.75
2022-12-03T15:32:13.508Z,96723.97
2022-12-03T15:34:39.948Z,96724.25
2022-12-03T15:37:06.387Z,96723.44
2022-12-03T15:39:33.261Z,96729.47
2022-12-03T15:41:59.659Z,96717.66
2022-12-03T15:44:26.010Z,96719.44
2022-12-03T15:46:52.362Z,96716.97
2022-12-03T15:49:19.915Z,96725.34
2022-12-03T15:51:46.365Z,96725.47
2022-12-03T15:54:12.846Z,96715.31
2022-12-03T15:56:39.391Z,96722.25
2022-12-03T15:59:05.785Z,96713.03
2022-12-03T16:01:32.313Z,96720.59
2022-12-03T16:03:58.867Z,96712.38
2022-12-03T16:06:26.340Z,96705.69
2022-12-03T16:08:52.872Z,96710.66
2022-12-03T16:11:19.310Z,96703.09
2022-12-03T16:13:45.694Z,96695.22
2022-12-03T16:16:12.098Z,96694.34
2022-12-03T16:18:38.582Z,96693.66
2022-12-03T16:21:04.964Z,96694.59
2022-12-03T16:23:31.314Z,96693.97
2022-12-03T16:25:57.667Z,96694.72
2022-12-03T16:28:24.191Z,96684.50
2022-12-03T16:30:50.727Z,96685.19
2022-12-03T16:33:20.088Z,96684.16
2022-12-03T16:35:49.097Z,96684.06
2022-12-03T16:38:15.515Z,96688.16
2022-12-03T16:40:42.020Z,96681.44
2022-12-03T16:43:10.493Z,96686.41
2022-12-03T16:45:42.796Z,96694.66
2022-12-03T16:48:09.171Z,96688.88
2022-12-03T16:50:37.505Z,96694.69
2022-12-03T16:53:03.932Z,96687.91
2022-12-03T16:55:31.491Z,96689.66
2022-12-03T16:57:57.862Z,96692.16
2022-12-03T17:00:26.216Z,96689.81
2022-12-03T17:02:52.719Z,96684.88
2022-12-03T17:05:19.398Z,96684.06
2022-12-03T17:07:45.816Z,96678.25
2022-12-03T17:10:12.341Z,96677.38
2022-12-03T17:13:07.798Z,96681.63
2022-12-03T17:15:25.123Z,96679.09
2022-12-03T17:17:51.558Z,96683.22
2022-12-03T17:20:18.519Z,96678.84
2022-12-03T17:22:44.954Z,96682.97
2022-12-03T17:25:11.521Z,96678.72
2022-12-03T17:27:44.645Z,96682.28
2022-12-03T17:30:12.559Z,96688.25
2022-12-03T17:32:39.007Z,96687.38
2022-12-03T17:35:05.838Z,96685.72
2022-12-03T17:37:32.396Z,96678.25
2022-12-03T17:39:58.869Z,96676.59
2022-12-03T17:42:25.322Z,96675.53
2022-12-03T17:44:51.708Z,96671.56
2022-12-03T17:47:18.202Z,96674.84
2022-12-03T17:49:44.579Z,96681.72
2022-12-03T17:52:10.919Z,96674.94
2022-12-03T17:55:01.846Z,96678.09
2022-12-03T17:57:23.751Z,96677.19
2022-12-03T17:59:50.196Z,96678.16
2022-12-03T18:02:16.906Z,96695.81
2022-12-03T18:04:43.472Z,96694.97
2022-12-03T18:07:09.885Z,96695.09
2022-12-03T18:09:36.303Z,96690.97
2022-12-03T18:12:02.662Z,96685.06
2022-12-03T18:14:29.025Z,96688.50
2022-12-03T18:16:55.985Z,96685.06
2022-12-03T18:19:22.430Z,96670.75
2022-12-03T18:21:48.865Z,96673.25
2022-12-03T18:24:15.274Z,96672.25
2022-12-03T18:26:42.602Z,96679.13
2022-12-03T18:29:09.062Z,96678.31
2022-12-03T18:31:35.495Z,96664.63
2022-12-03T18:34:01.991Z,96666.19
2022-12-03T18:36:33.332Z,96662.25
2022-12-03T18:39:01.022Z,96656.16
2022-12-03T18:41:27.710Z,96654.19
2022-12-03T18:43:54.528Z,96656.97
2022-12-03T18:49:09.695Z,96658.94
2022-12-03T18:51:36.590Z,96653.72
2022-12-03T18:54:03.176Z,96650.38
2022-12-03T18:56:29.617Z,96646.94
2022-12-03T18:58:55.999Z,96644.25
2022-12-03T19:01:23.050Z,96635.81
2022-12-03T19:03:49.933Z,96642.56
2022-12-03T19:06:20.493Z,96641.75
2022-12-03T19:08:49.390Z,96650.25
2022-12-03T19:11:15.835Z,96655.16
2022-12-03T19:13:42.264Z,96644.47
2022-12-03T19:16:10.065Z,96646.94
2022-12-03T19:18:36.477Z,96648.84
2022-12-03T19:21:08.009Z,96643.84
2022-12-03T19:23:35.948Z,96653.81
2022-12-03T19:26:04.078Z,96652.97
2022-12-03T19:28:30.752Z,96652.84
2022-12-03T19:31:03.221Z,96652.88
2022-12-03T19:33:30.224Z,96653.72
2022-12-03T19:35:58.025Z,96658.63
2022-12-03T19:38:27.032Z,96653.72
2022-12-03T19:41:02.744Z,96660.28
2022-12-03T19:43:31.765Z,96659.59
2022-12-03T19:46:03.504Z,96660.53
2022-12-03T19:48:31.182Z,96652.28
2022-12-03T19:51:19.781Z,96653.81
2022-12-03T19:53:45.987Z,96648.88
2022-12-03T19:56:15.126Z,96646.19
2022-12-03T19:58:44.941Z,96647.91
2022-12-03T20:01:14.974Z,96641.03
2022-12-03T20:03:46.787Z,96645.13
2022-12-03T20:06:14.167Z,96638.44
2022-12-03T20:08:40.589Z,96636.84
2022-12-03T20:11:22.270Z,96640.97
2022-12-03T20:13:52.969Z,96642.63
2022-12-03T20:16:19.572Z,96638.44
2022-12-03T20:18:48.469Z,96639.38
2022-12-03T20:21:16.962Z,96632.84
2022-12-03T20:23:45.364Z,96632.09
2022-12-03T20:26:14.902Z,96629.66
2022-12-03T20:28:41.800Z,96617.78
2022-12-03T20:31:13.249Z,96615.19
2022-12-03T20:33:42.256Z,96624.34
2022-12-03T20:36:10.228Z,96617.59
2022-12-03T20:38:37.166Z,96625.28
2022-12-03T20:41:05.689Z,96627.00
2022-12-03T20:43:32.782Z,96622.06
2022-12-03T20:46:17.178Z,96615.94
2022-12-03T20:48:44.618Z,96613.56
2022-12-03T20:51:13.663Z,96613.81
2022-12-03T20:53:40.401Z,96611.31
2022-12-03T20:56:07.412Z,96617.09
2022-12-03T20:58:34.518Z,96612.75
2022-12-03T21:01:18.363Z,96616.06
2022-12-03T21:03:46.191Z,96616.16
2022-12-03T21:06:13.941Z,96619.44
2022-12-03T21:08:42.412Z,96603.47
2022-12-03T21:11:11.228Z,96612.06
2022-12-03T21:13:41.071Z,96605.22
2022-12-03T21:16:10.174Z,96605.34
2022-12-03T21:18:37.405Z,96603.88
2022-12-03T21:21:06.497Z,96602.16
2022-12-03T21:23:33.989Z,96598.75
2022-12-03T21:26:20.766Z,96595.28
2022-12-03T21:28:49.598Z,96594.50
2022-12-03T21:31:19.174Z,96585.34
2022-12-03T21:33:45.930Z,96590.47
2022-12-03T21:36:14.102Z,96586.31
2022-12-03T21:38:41.258Z,96586.28
2022-12-03T21:41:08.402Z,96588.84
2022-12-03T21:43:34.872Z,96578.97
2022-12-03T21:47:10.409Z,96572.91
2022-12-03T21:48:52.123Z,96581.41
2022-12-03T21:51:19.236Z,96575.66
2022-12-03T21:53:46.085Z,96564.00
2022-12-03T21:56:17.641Z,96564.00
2022-12-03T21:58:45.010Z,96560.72
2022-12-03T22:01:23.045Z,96563.13
2022-12-03T22:03:50.035Z,96558.81
2022-12-03T22:06:17.112Z,96557.94
2022-12-03T22:08:43.966Z,96558.16
2022-12-03T22:11:17.252Z,96560.66
2022-12-03T22:13:44.459Z,96556.28
2022-12-03T22:16:14.396Z,96572.34
2022-12-03T22:18:40.887Z,96569.13
2022-12-03T22:21:13.146Z,96564.09
2022-12-03T22:23:40.442Z,96555.81
2022-12-03T22:26:09.300Z,96549.97
2022-12-03T22:28:35.806Z,96551.38
2022-12-03T22:31:09.387Z,96551.47
2022-12-03T22:33:36.296Z,96553.94
2022-12-03T22:36:05.605Z,96554.75
2022-12-03T22:38:32.459Z,96547.88
2022-12-03T22:40:59.202Z,96548.56
2022-12-03T22:43:26.458Z,96552.81
2022-12-03T22:45:54.836Z,96550.44
2022-12-03T22:48:22.301Z,96543.13
2022-12-03T22:50:50.021Z,96540.53
2022-12-03T22:53:16.718Z,96544.72
2022-12-03T22:55:43.628Z,96554.06
2022-12-03T22:58:11.317Z,96543.19
2022-12-03T23:00:40.957Z,96533.88
2022-12-03T23:03:08.079Z,96539.84
2022-12-03T23:05:36.939Z,96542.25
2022-12-03T23:08:05.619Z,96543.22
2022-12-03T23:10:36.456Z,96538.31
2022-12-03T23:13:03.314Z,96530.03
2022-12-03T23:15:30.108Z,96533.19
2022-12-03T23:17:56.878Z,96529.88
2022-12-03T23:20:23.741Z,96535.72
2022-12-03T23:22:50.473Z,96536.50
2022-12-03T23:25:17.424Z,96533.09
2022-12-03T23:27:44.272Z,96532.50
2022-12-03T23:30:12.170Z,96520.72
2022-12-03T23:32:38.480Z,96520.56
2022-12-03T23:35:05.550Z,96524.75
2022-12-03T23:37:32.147Z,96535.88
2022-12-03T23:39:58.507Z,96521.72
2022-12-03T23:42:24.956Z,96520.88
2022-12-03T23:44:51.345Z,96516.56
2022-12-03T23:47:17.758Z,96501.69
2022-12-03T23:49:44.276Z,96498.31
2022-12-03T23:52:10.627Z,96502.41
2022-12-03T23:54:37.663Z,96496.53
2022-12-03T23:57:04.611Z,96498.16
2022-12-03T23:59:31.110Z,96498.22
